Time;durP1;ratioP1;P1;durP2;ratioP2;P2;SDS_P1;SDS_P2;PMS_P1;PMS_P2;Temp;Humidity;BMP_temperature;BMP_pressure;BME280_temperature;BME280_humidity;BME280_pressure;Samples;Min_cycle;Max_cycle;Signal;HPM_P1;HPM_P2
2024/03/22 00:01:46;;;;;;;14.68;9.65;;;;;;;;;;5048404;28;20078;-73
2024/03/22 00:04:12;;;;;;;13.32;7.97;;;;;;;;;;5050817;28;20029;-73
2024/03/22 00:06:38;;;;;;;12.73;8.10;;;;;;;;;;5049190;28;20037;-74
2024/03/22 00:09:03;;;;;;;11.98;7.70;;;;;;;;;;5047473;28;20366;-74
2024/03/22 00:11:28;;;;;;;13.10;8.15;;;;;;;;;;5047239;28;20034;-73
2024/03/22 00:13:54;;;;;;;12.52;8.60;;;;;;;;;;5047628;28;20036;-74
2024/03/22 00:16:19;;;;;;;11.20;7.53;;;;;;;;;;5034484;28;20025;-73
2024/03/22 00:18:44;;;;;;;15.82;10.43;;;;;;;;;;5048760;28;20017;-73
2024/03/22 00:21:09;;;;;;;12.45;8.52;;;;;;;;;;5030887;28;20124;-74
2024/03/22 00:23:34;;;;;;;16.15;9.02;;;;;;;;;;5048261;28;20034;-73
2024/03/22 00:26:00;;;;;;;14.45;8.90;;;;;;;;;;5034217;28;20033;-73
2024/03/22 00:28:25;;;;;;;13.77;8.75;;;;;;;;;;5043672;28;20033;-73
2024/03/22 00:30:50;;;;;;;13.07;7.88;;;;;;;;;;5051036;28;20087;-73
2024/03/22 00:33:15;;;;;;;14.93;8.98;;;;;;;;;;5032453;28;20057;-73
2024/03/22 00:35:40;;;;;;;14.85;8.20;;;;;;;;;;5046635;28;20108;-74
2024/03/22 00:38:06;;;;;;;15.32;8.75;;;;;;;;;;5046441;28;20041;-73
2024/03/22 00:40:31;;;;;;;13.40;8.15;;;;;;;;;;5042562;28;20038;-74
2024/03/22 00:42:56;;;;;;;12.95;8.20;;;;;;;;;;5045233;28;20028;-73
2024/03/22 00:45:21;;;;;;;13.52;8.15;;;;;;;;;;5049927;28;20513;-74
2024/03/22 00:47:47;;;;;;;13.32;7.38;;;;;;;;;;5048572;28;20033;-73
2024/03/22 00:50:12;;;;;;;18.38;7.50;;;;;;;;;;5046914;28;20041;-74
2024/03/22 00:52:38;;;;;;;14.00;7.60;;;;;;;;;;5033567;28;20021;-74
2024/03/22 00:55:03;;;;;;;12.75;7.43;;;;;;;;;;5043704;28;20507;-74
2024/03/22 00:57:28;;;;;;;12.77;7.10;;;;;;;;;;5044325;28;20025;-74
2024/03/22 00:59:53;;;;;;;11.00;6.72;;;;;;;;;;5049293;28;20489;-73
2024/03/22 01:02:19;;;;;;;13.68;8.30;;;;;;;;;;5048190;28;20060;-74
2024/03/22 01:04:44;;;;;;;12.30;7.47;;;;;;;;;;5032947;28;20123;-73
2024/03/22 01:07:09;;;;;;;13.98;8.18;;;;;;;;;;5045213;28;20053;-74
2024/03/22 01:09:34;;;;;;;14.93;8.32;;;;;;;;;;5040988;28;20037;-73
2024/03/22 01:12:00;;;;;;;14.63;8.32;;;;;;;;;;5051110;28;20029;-73
2024/03/22 01:14:26;;;;;;;13.13;7.90;;;;;;;;;;5047691;28;20033;-73
2024/03/22 01:16:51;;;;;;;17.08;9.77;;;;;;;;;;5046429;28;20565;-73
2024/03/22 01:19:16;;;;;;;14.88;8.82;;;;;;;;;;5046981;28;20100;-73
2024/03/22 01:21:41;;;;;;;14.18;7.43;;;;;;;;;;5044012;28;20432;-73
2024/03/22 01:24:07;;;;;;;15.68;9.68;;;;;;;;;;5046982;28;20033;-73
2024/03/22 01:26:32;;;;;;;12.10;7.25;;;;;;;;;;5049272;28;20637;-73
2024/03/22 01:28:57;;;;;;;15.25;8.52;;;;;;;;;;5048562;28;20033;-74
2024/03/22 01:31:22;;;;;;;15.25;7.55;;;;;;;;;;5045603;28;20029;-73
2024/03/22 01:33:47;;;;;;;16.60;9.35;;;;;;;;;;5045459;28;20043;-73
2024/03/22 01:36:13;;;;;;;14.27;8.30;;;;;;;;;;5042346;28;20033;-73
2024/03/22 01:38:38;;;;;;;13.90;8.15;;;;;;;;;;5044931;28;20029;-74
2024/03/22 01:41:03;;;;;;;16.58;8.98;;;;;;;;;;5033133;28;20433;-74
2024/03/22 01:43:28;;;;;;;15.15;8.23;;;;;;;;;;5047215;28;20406;-74
2024/03/22 01:45:54;;;;;;;18.00;8.23;;;;;;;;;;5046586;28;20056;-74
2024/03/22 01:48:19;;;;;;;14.95;8.52;;;;;;;;;;5043031;28;20048;-74
2024/03/22 01:50:44;;;;;;;15.38;8.45;;;;;;;;;;5042563;28;20041;-74
2024/03/22 01:53:10;;;;;;;15.13;8.27;;;;;;;;;;5046610;28;20059;-74
2024/03/22 01:55:35;;;;;;;14.52;8.52;;;;;;;;;;5047793;28;20120;-74
2024/03/22 01:58:00;;;;;;;12.93;7.95;;;;;;;;;;5047386;28;20166;-74
2024/03/22 02:00:25;;;;;;;12.73;7.35;;;;;;;;;;5043505;28;20587;-73
2024/03/22 02:02:51;;;;;;;14.98;8.85;;;;;;;;;;5044012;28;20037;-74
2024/03/22 02:05:19;;;;;;;13.93;8.25;;;;;;;;;;5040481;28;20033;-73
2024/03/22 02:07:44;;;;;;;13.43;7.75;;;;;;;;;;5048671;28;20117;-74
2024/03/22 02:10:12;;;;;;;15.02;8.93;;;;;;;;;;5047959;28;20171;-74
2024/03/22 02:12:38;;;;;;;14.43;7.60;;;;;;;;;;5044770;28;20117;-73
2024/03/22 02:15:04;;;;;;;17.90;9.38;;;;;;;;;;5042171;28;20087;-73
2024/03/22 02:17:29;;;;;;;15.45;8.75;;;;;;;;;;5043414;28;20026;-73
2024/03/22 02:19:54;;;;;;;17.00;8.98;;;;;;;;;;5042539;28;20053;-73
2024/03/22 02:22:19;;;;;;;17.63;9.65;;;;;;;;;;5048409;28;20107;-73
2024/03/22 02:24:44;;;;;;;16.10;9.27;;;;;;;;;;5046934;28;20108;-74
2024/03/22 02:27:09;;;;;;;15.95;8.73;;;;;;;;;;5046125;28;20111;-73
2024/03/22 02:29:35;;;;;;;16.92;9.55;;;;;;;;;;5042253;28;20043;-73
2024/03/22 02:32:00;;;;;;;19.08;9.43;;;;;;;;;;5043013;28;20028;-74
2024/03/22 02:34:25;;;;;;;15.13;8.85;;;;;;;;;;5042059;28;20055;-74
2024/03/22 02:36:50;;;;;;;16.20;8.90;;;;;;;;;;5048342;28;20025;-74
2024/03/22 02:39:15;;;;;;;15.45;9.60;;;;;;;;;;5046978;28;20079;-73
2024/03/22 02:41:41;;;;;;;15.73;8.18;;;;;;;;;;5043942;28;20033;-74
2024/03/22 02:44:06;;;;;;;16.75;9.95;;;;;;;;;;5043666;28;20032;-74
2024/03/22 02:46:31;;;;;;;15.35;8.75;;;;;;;;;;5039819;28;20052;-74
2024/03/22 02:48:56;;;;;;;15.52;8.90;;;;;;;;;;5027797;28;20401;-74
2024/03/22 02:51:21;;;;;;;17.27;9.95;;;;;;;;;;5047515;28;20025;-74
2024/03/22 02:53:47;;;;;;;15.05;9.07;;;;;;;;;;5044888;28;20393;-74
2024/03/22 02:56:12;;;;;;;15.82;9.50;;;;;;;;;;5044531;28;20382;-74
2024/03/22 02:58:37;;;;;;;14.88;8.88;;;;;;;;;;5044873;28;20059;-73
2024/03/22 03:01:03;;;;;;;14.45;9.38;;;;;;;;;;5041608;28;20469;-74
2024/03/22 03:03:28;;;;;;;21.45;10.13;;;;;;;;;;5045358;28;20033;-73
2024/03/22 03:05:53;;;;;;;14.48;8.30;;;;;;;;;;5023089;28;20068;-73
2024/03/22 03:08:19;;;;;;;14.73;8.25;;;;;;;;;;5042537;28;20071;-73
2024/03/22 03:10:45;;;;;;;17.52;9.73;;;;;;;;;;5043344;28;20494;-73
2024/03/22 03:13:10;;;;;;;15.95;9.75;;;;;;;;;;5041931;28;20032;-73
2024/03/22 03:15:35;;;;;;;17.38;9.00;;;;;;;;;;5039460;28;20029;-73
2024/03/22 03:18:01;;;;;;;18.67;9.57;;;;;;;;;;5048475;28;20025;-73
2024/03/22 03:20:26;;;;;;;17.25;8.82;;;;;;;;;;5046839;28;20029;-73
2024/03/22 03:22:52;;;;;;;15.40;8.50;;;;;;;;;;5045244;28;20033;-73
2024/03/22 03:25:17;;;;;;;17.05;8.80;;;;;;;;;;5042715;28;20105;-72
2024/03/22 03:27:42;;;;;;;15.48;8.05;;;;;;;;;;5042586;28;20108;-73
2024/03/22 03:30:07;;;;;;;17.48;9.73;;;;;;;;;;5041818;28;20508;-73
2024/03/22 03:32:33;;;;;;;13.20;8.38;;;;;;;;;;5047969;28;20043;-74
2024/03/22 03:34:58;;;;;;;16.05;8.80;;;;;;;;;;5050061;28;20037;-73
2024/03/22 03:37:23;;;;;;;13.98;8.38;;;;;;;;;;5047343;28;20040;-73
2024/03/22 03:39:48;;;;;;;14.30;8.35;;;;;;;;;;5049474;28;20033;-74
2024/03/22 03:42:13;;;;;;;13.70;7.63;;;;;;;;;;5044399;28;20052;-73
2024/03/22 03:44:39;;;;;;;13.18;8.25;;;;;;;;;;5048157;28;20028;-73
2024/03/22 03:47:04;;;;;;;15.70;9.18;;;;;;;;;;5051148;28;20025;-73
2024/03/22 03:49:29;;;;;;;15.65;9.10;;;;;;;;;;5047819;28;20044;-73
2024/03/22 03:51:54;;;;;;;16.30;8.98;;;;;;;;;;5047183;28;20136;-73
2024/03/22 03:54:19;;;;;;;14.13;7.93;;;;;;;;;;5046420;28;20394;-74
2024/03/22 03:56:45;;;;;;;14.55;8.93;;;;;;;;;;5047468;28;20486;-73
2024/03/22 03:59:10;;;;;;;16.58;9.82;;;;;;;;;;5051977;28;20040;-74
2024/03/22 04:01:35;;;;;;;18.25;10.73;;;;;;;;;;5049106;28;20041;-74
2024/03/22 04:04:02;;;;;;;16.92;9.18;;;;;;;;;;5049987;28;20032;-74
2024/03/22 04:06:27;;;;;;;14.30;7.60;;;;;;;;;;5046462;28;20040;-74
2024/03/22 04:08:53;;;;;;;14.73;8.60;;;;;;;;;;5045863;28;20032;-74
2024/03/22 04:11:18;;;;;;;14.45;8.32;;;;;;;;;;5044793;28;20029;-74
2024/03/22 04:13:43;;;;;;;14.27;8.30;;;;;;;;;;5050401;28;21330;-73
2024/03/22 04:16:08;;;;;;;17.50;9.20;;;;;;;;;;5049789;28;20032;-74
2024/03/22 04:18:33;;;;;;;15.93;8.90;;;;;;;;;;5046436;28;20033;-73
2024/03/22 04:20:59;;;;;;;16.98;9.55;;;;;;;;;;5046355;28;20107;-74
2024/03/22 04:23:25;;;;;;;16.45;8.43;;;;;;;;;;5045945;28;20091;-74
2024/03/22 04:25:53;;;;;;;16.45;9.20;;;;;;;;;;5047392;28;20029;-74
2024/03/22 04:28:18;;;;;;;17.10;9.50;;;;;;;;;;5050739;28;20409;-74
2024/03/22 04:30:43;;;;;;;17.00;9.02;;;;;;;;;;5047487;28;20029;-74
2024/03/22 04:33:08;;;;;;;14.38;8.32;;;;;;;;;;5041034;28;20030;-74
2024/03/22 04:35:34;;;;;;;13.70;8.75;;;;;;;;;;5040079;28;20033;-74
2024/03/22 04:37:59;;;;;;;17.30;8.40;;;;;;;;;;5045263;28;20110;-75
2024/03/22 04:40:25;;;;;;;16.13;9.43;;;;;;;;;;5047761;28;20029;-75
2024/03/22 04:42:50;;;;;;;16.25;9.35;;;;;;;;;;5041026;28;20036;-74
2024/03/22 04:45:16;;;;;;;14.57;8.63;;;;;;;;;;5044868;28;20025;-74
2024/03/22 04:47:42;;;;;;;15.93;9.30;;;;;;;;;;5043613;28;20021;-74
2024/03/22 04:50:09;;;;;;;18.15;11.15;;;;;;;;;;5044815;28;20314;-75
2024/03/22 04:52:34;;;;;;;19.27;11.25;;;;;;;;;;5042003;28;20037;-74
2024/03/22 04:55:01;;;;;;;16.75;9.65;;;;;;;;;;5043364;28;20105;-75
2024/03/22 04:57:26;;;;;;;14.18;8.73;;;;;;;;;;5045936;28;20401;-75
2024/03/22 04:59:52;;;;;;;16.83;9.27;;;;;;;;;;5041174;28;20036;-72
2024/03/22 05:02:17;;;;;;;16.15;9.02;;;;;;;;;;5043823;28;20041;-72
2024/03/22 05:04:43;;;;;;;19.25;9.95;;;;;;;;;;5041756;28;20112;-72
2024/03/22 05:07:08;;;;;;;18.92;11.25;;;;;;;;;;5040246;28;20060;-72
2024/03/22 05:09:33;;;;;;;17.27;10.18;;;;;;;;;;5042073;28;20104;-72
2024/03/22 05:11:58;;;;;;;15.80;9.52;;;;;;;;;;5044388;28;20056;-71
2024/03/22 05:14:23;;;;;;;18.27;10.57;;;;;;;;;;5044523;28;20075;-72
2024/03/22 05:16:49;;;;;;;15.50;9.73;;;;;;;;;;5043452;28;20041;-72
2024/03/22 05:19:14;;;;;;;19.95;12.48;;;;;;;;;;5041797;28;20060;-72
2024/03/22 05:21:39;;;;;;;19.98;10.60;;;;;;;;;;5040217;28;20139;-73
2024/03/22 05:24:04;;;;;;;25.63;15.30;;;;;;;;;;5043939;28;20074;-72
2024/03/22 05:26:32;;;;;;;20.08;12.00;;;;;;;;;;5043770;28;20178;-71
2024/03/22 05:28:57;;;;;;;20.13;11.57;;;;;;;;;;5043009;28;20029;-71
2024/03/22 05:31:22;;;;;;;19.10;10.77;;;;;;;;;;5046176;28;20375;-71
2024/03/22 05:33:47;;;;;;;17.05;10.85;;;;;;;;;;5042191;28;20033;-72
2024/03/22 05:36:13;;;;;;;19.52;9.70;;;;;;;;;;5042733;28;20033;-71
2024/03/22 05:38:38;;;;;;;19.58;11.38;;;;;;;;;;5044225;28;20040;-72
2024/03/22 05:41:04;;;;;;;19.75;10.63;;;;;;;;;;5041602;28;20040;-72
2024/03/22 05:43:29;;;;;;;19.38;11.88;;;;;;;;;;5042427;28;20116;-71
2024/03/22 05:45:54;;;;;;;16.77;10.15;;;;;;;;;;5041308;28;20083;-72
2024/03/22 05:48:19;;;;;;;17.17;9.43;;;;;;;;;;5044714;28;20125;-71
2024/03/22 05:50:45;;;;;;;16.13;9.88;;;;;;;;;;5045669;28;20486;-71
2024/03/22 05:53:10;;;;;;;16.15;9.50;;;;;;;;;;5043096;28;20071;-72
2024/03/22 05:55:35;;;;;;;18.77;9.13;;;;;;;;;;5040255;28;20459;-72
2024/03/22 05:58:00;;;;;;;19.05;10.38;;;;;;;;;;5046950;28;20021;-72
2024/03/22 06:00:25;;;;;;;14.65;8.70;;;;;;;;;;5039775;28;20401;-71
2024/03/22 06:02:51;;;;;;;13.77;8.60;;;;;;;;;;5038974;28;20029;-71
2024/03/22 06:05:17;;;;;;;14.07;8.60;;;;;;;;;;5041518;28;20090;-71
2024/03/22 06:07:43;;;;;;;17.27;8.02;;;;;;;;;;5046991;28;20615;-71
2024/03/22 06:10:11;;;;;;;16.95;7.75;;;;;;;;;;5045554;28;20497;-71
2024/03/22 06:12:37;;;;;;;13.00;8.00;;;;;;;;;;5046493;28;20039;-72
2024/03/22 06:15:05;;;;;;;11.63;6.85;;;;;;;;;;5042347;28;20021;-71
2024/03/22 06:17:31;;;;;;;12.43;7.07;;;;;;;;;;5038778;28;20033;-71
2024/03/22 06:19:56;;;;;;;11.73;7.40;;;;;;;;;;5039266;28;20029;-71
2024/03/22 06:22:21;;;;;;;12.38;7.18;;;;;;;;;;5043488;28;20155;-71
2024/03/22 06:24:47;;;;;;;11.05;7.22;;;;;;;;;;5043394;28;20030;-71
2024/03/22 06:27:13;;;;;;;12.30;6.47;;;;;;;;;;5022977;28;20029;-71
2024/03/22 06:29:38;;;;;;;9.20;5.93;;;;;;;;;;5037615;28;20049;-73
2024/03/22 06:32:04;;;;;;;10.95;6.35;;;;;;;;;;5041854;28;20029;-74
2024/03/22 06:34:29;;;;;;;12.50;6.95;;;;;;;;;;5043314;28;20033;-74
2024/03/22 06:36:55;;;;;;;13.63;5.97;;;;;;;;;;5040936;28;20032;-74
2024/03/22 06:39:20;;;;;;;12.13;6.65;;;;;;;;;;5040519;28;20033;-74
2024/03/22 06:41:45;;;;;;;12.57;6.80;;;;;;;;;;5039315;28;20059;-74
2024/03/22 06:44:11;;;;;;;12.73;6.53;;;;;;;;;;5045818;28;20064;-74
2024/03/22 06:46:37;;;;;;;11.95;6.50;;;;;;;;;;5040127;28;20037;-74
2024/03/22 06:49:02;;;;;;;10.45;6.00;;;;;;;;;;5047274;28;20055;-73
2024/03/22 06:51:27;;;;;;;11.25;6.53;;;;;;;;;;5040285;28;20436;-73
2024/03/22 06:53:52;;;;;;;10.80;5.93;;;;;;;;;;5043235;28;20025;-74
2024/03/22 06:56:18;;;;;;;12.02;6.18;;;;;;;;;;5041566;28;20029;-74
2024/03/22 06:58:43;;;;;;;9.13;5.43;;;;;;;;;;5040110;28;20161;-74
2024/03/22 07:01:09;;;;;;;11.98;6.60;;;;;;;;;;5040134;28;20034;-74
2024/03/22 07:03:34;;;;;;;12.02;6.22;;;;;;;;;;5041800;28;20596;-74
2024/03/22 07:06:00;;;;;;;9.48;5.78;;;;;;;;;;5043291;28;20023;-73
2024/03/22 07:08:25;;;;;;;14.65;8.70;;;;;;;;;;5044300;28;20397;-74
2024/03/22 07:10:52;;;;;;;14.50;8.88;;;;;;;;;;5048003;28;20033;-74
2024/03/22 07:13:18;;;;;;;10.15;5.75;;;;;;;;;;5045001;28;20040;-74
2024/03/22 07:15:44;;;;;;;8.70;5.15;;;;;;;;;;5042839;28;20033;-74
2024/03/22 07:18:10;;;;;;;9.82;5.00;;;;;;;;;;5048321;28;20033;-74
2024/03/22 07:20:35;;;;;;;10.45;5.57;;;;;;;;;;5044764;28;20099;-74
2024/03/22 07:23:00;;;;;;;11.35;5.90;;;;;;;;;;5045973;28;20025;-74
2024/03/22 07:25:25;;;;;;;10.55;5.22;;;;;;;;;;5042421;28;20481;-74
2024/03/22 07:27:50;;;;;;;10.60;5.97;;;;;;;;;;5041774;28;20087;-74
2024/03/22 07:30:16;;;;;;;12.27;5.00;;;;;;;;;;5044845;28;20524;-74
2024/03/22 07:32:41;;;;;;;9.20;5.60;;;;;;;;;;5043035;28;20502;-74
2024/03/22 07:35:09;;;;;;;10.65;5.72;;;;;;;;;;5047096;28;20413;-74
2024/03/22 07:37:35;;;;;;;10.63;5.82;;;;;;;;;;5043111;28;20044;-74
2024/03/22 07:40:01;;;;;;;11.88;7.93;;;;;;;;;;5041604;28;20482;-74
2024/03/22 07:42:26;;;;;;;10.35;5.50;;;;;;;;;;5031802;28;20041;-74
2024/03/22 07:44:51;;;;;;;10.05;5.88;;;;;;;;;;5042809;28;20029;-74
2024/03/22 07:47:16;;;;;;;11.23;5.53;;;;;;;;;;5044998;28;20028;-74
2024/03/22 07:49:41;;;;;;;10.20;5.38;;;;;;;;;;5041352;28;20030;-74
2024/03/22 07:52:07;;;;;;;10.93;5.72;;;;;;;;;;5045109;28;20053;-74
2024/03/22 07:54:32;;;;;;;9.10;5.15;;;;;;;;;;5044619;28;20413;-74
2024/03/22 07:56:57;;;;;;;11.52;5.32;;;;;;;;;;5043869;28;20459;-74
2024/03/22 07:59:22;;;;;;;11.57;6.15;;;;;;;;;;5048019;28;20036;-73
2024/03/22 08:01:48;;;;;;;10.30;5.43;;;;;;;;;;5044617;28;20033;-74
2024/03/22 08:04:13;;;;;;;11.48;6.50;;;;;;;;;;5043447;28;20412;-74
2024/03/22 08:06:38;;;;;;;11.95;6.55;;;;;;;;;;5042508;28;20046;-74
2024/03/22 08:09:03;;;;;;;12.68;6.30;;;;;;;;;;5043973;28;20056;-74
2024/03/22 08:11:29;;;;;;;13.38;7.65;;;;;;;;;;5043702;28;20033;-74
2024/03/22 08:14:01;;;;;;;9.30;5.90;;;;;;;;;;5041213;28;20025;-74
2024/03/22 08:16:27;;;;;;;10.73;6.70;;;;;;;;;;5042682;28;20041;-74
2024/03/22 08:18:52;;;;;;;14.95;7.85;;;;;;;;;;5045488;28;20025;-74
2024/03/22 08:21:17;;;;;;;12.80;7.40;;;;;;;;;;5046244;28;20037;-74
2024/03/22 08:23:42;;;;;;;15.27;8.85;;;;;;;;;;5042736;28;20050;-74
2024/03/22 08:26:08;;;;;;;13.15;7.63;;;;;;;;;;5043699;28;20078;-74
2024/03/22 08:28:33;;;;;;;15.98;8.38;;;;;;;;;;5047613;28;20044;-74
2024/03/22 08:30:58;;;;;;;13.13;8.40;;;;;;;;;;5046795;28;20056;-74
2024/03/22 08:33:24;;;;;;;17.20;9.77;;;;;;;;;;5049216;28;20037;-74
2024/03/22 08:35:49;;;;;;;14.35;8.65;;;;;;;;;;5041591;28;20044;-74
2024/03/22 08:38:14;;;;;;;15.88;9.90;;;;;;;;;;5049846;28;20036;-71
2024/03/22 08:40:40;;;;;;;16.65;10.05;;;;;;;;;;5044450;28;20569;-71
2024/03/22 08:43:09;;;;;;;14.20;8.82;;;;;;;;;;5042945;28;20028;-72
2024/03/22 08:45:34;;;;;;;16.23;9.65;;;;;;;;;;5045904;28;20514;-72
2024/03/22 08:47:59;;;;;;;17.08;9.57;;;;;;;;;;5048072;28;20120;-72
2024/03/22 08:50:25;;;;;;;15.15;9.80;;;;;;;;;;5040058;28;20028;-71
2024/03/22 08:52:51;;;;;;;17.60;9.15;;;;;;;;;;5042694;28;20025;-71
2024/03/22 08:55:17;;;;;;;14.25;8.20;;;;;;;;;;5046861;28;20048;-71
2024/03/22 08:57:42;;;;;;;16.15;10.10;;;;;;;;;;5042188;28;20079;-72
2024/03/22 09:00:08;;;;;;;16.15;9.60;;;;;;;;;;5043617;28;20025;-72
2024/03/22 09:02:34;;;;;;;18.33;9.82;;;;;;;;;;5042125;28;20044;-72
2024/03/22 09:04:59;;;;;;;14.52;9.75;;;;;;;;;;5040113;28;20025;-72
2024/03/22 09:07:24;;;;;;;13.70;8.63;;;;;;;;;;5048775;28;20112;-72
2024/03/22 09:09:49;;;;;;;15.52;9.40;;;;;;;;;;5042291;28;20079;-72
2024/03/22 09:12:15;;;;;;;14.70;8.93;;;;;;;;;;5046383;28;20041;-71
2024/03/22 09:14:40;;;;;;;15.65;8.88;;;;;;;;;;5042349;28;20025;-72
2024/03/22 09:17:05;;;;;;;16.20;10.60;;;;;;;;;;5041369;28;20017;-72
2024/03/22 09:19:31;;;;;;;15.35;9.43;;;;;;;;;;5043092;28;20083;-71
2024/03/22 09:21:56;;;;;;;17.65;10.43;;;;;;;;;;5040124;28;20724;-71
2024/03/22 09:24:22;;;;;;;17.70;10.57;;;;;;;;;;5046081;28;20025;-72
2024/03/22 09:26:47;;;;;;;15.77;9.73;;;;;;;;;;5027978;28;20056;-72
2024/03/22 09:29:15;;;;;;;21.20;10.95;;;;;;;;;;5042528;28;20037;-72
2024/03/22 09:31:40;;;;;;;17.40;10.35;;;;;;;;;;5038674;28;20371;-71
2024/03/22 09:34:05;;;;;;;17.23;10.13;;;;;;;;;;5041262;28;20032;-72
2024/03/22 09:36:34;;;;;;;17.00;9.52;;;;;;;;;;5042502;28;20040;-71
2024/03/22 09:38:59;;;;;;;14.45;9.18;;;;;;;;;;5040961;28;20030;-71
2024/03/22 09:41:25;;;;;;;15.13;9.30;;;;;;;;;;5041261;28;20501;-72
2024/03/22 09:43:54;;;;;;;12.88;8.77;;;;;;;;;;5047951;28;20036;-72
2024/03/22 09:46:20;;;;;;;16.98;9.75;;;;;;;;;;5039302;28;20083;-72
2024/03/22 09:48:47;;;;;;;16.95;9.15;;;;;;;;;;5040197;28;20044;-72
2024/03/22 09:51:12;;;;;;;14.80;8.73;;;;;;;;;;5041866;28;20072;-72
2024/03/22 09:53:39;;;;;;;14.30;9.30;;;;;;;;;;5041941;28;20065;-71
2024/03/22 09:56:05;;;;;;;13.98;7.90;;;;;;;;;;5042235;28;20029;-72
2024/03/22 09:58:31;;;;;;;14.38;8.63;;;;;;;;;;5042817;28;20033;-71
2024/03/22 10:01:00;;;;;;;13.93;8.15;;;;;;;;;;5038802;28;20029;-72
2024/03/22 10:03:25;;;;;;;15.57;9.70;;;;;;;;;;5039790;28;20107;-72
2024/03/22 10:05:51;;;;;;;16.23;9.07;;;;;;;;;;5040035;28;20031;-72
2024/03/22 10:08:16;;;;;;;14.43;8.75;;;;;;;;;;5047886;28;20079;-72
2024/03/22 10:10:41;;;;;;;16.27;9.18;;;;;;;;;;5043438;28;20626;-72
2024/03/22 10:13:06;;;;;;;17.27;9.15;;;;;;;;;;5042147;28;20108;-72
2024/03/22 10:15:32;;;;;;;13.82;8.50;;;;;;;;;;5041954;28;20052;-74
2024/03/22 10:17:57;;;;;;;13.15;7.85;;;;;;;;;;5039217;28;20038;-74
2024/03/22 10:20:22;;;;;;;14.52;8.10;;;;;;;;;;5042110;28;20021;-74
2024/03/22 10:22:58;;;;;;;12.68;7.95;;;;;;;;;;5044614;28;20475;-72
2024/03/22 10:25:24;;;;;;;13.32;8.43;;;;;;;;;;5041792;28;20025;-73
2024/03/22 10:27:49;;;;;;;12.70;7.90;;;;;;;;;;5043809;28;20489;-74
2024/03/22 10:30:16;;;;;;;13.23;8.52;;;;;;;;;;5040874;28;20045;-73
2024/03/22 10:32:41;;;;;;;13.65;7.93;;;;;;;;;;5041280;28;20036;-74
2024/03/22 10:35:07;;;;;;;11.75;7.93;;;;;;;;;;5044241;28;20025;-74
2024/03/22 10:37:33;;;;;;;13.50;8.93;;;;;;;;;;5040813;28;20029;-74
2024/03/22 10:40:09;;;;;;;13.02;7.82;;;;;;;;;;5040694;28;20056;-74
2024/03/22 10:42:44;;;;;;;12.30;8.43;;;;;;;;;;5046909;28;20021;-73
2024/03/22 10:45:12;;;;;;;12.57;7.85;;;;;;;;;;5044735;28;20041;-74
2024/03/22 10:47:38;;;;;;;13.73;8.35;;;;;;;;;;5029860;28;20037;-74
2024/03/22 10:50:10;;;;;;;16.70;8.27;;;;;;;;;;5046947;28;20056;-74
2024/03/22 10:52:38;;;;;;;12.23;7.55;;;;;;;;;;5045892;28;20025;-74
2024/03/22 10:55:05;;;;;;;12.52;7.35;;;;;;;;;;5042479;28;20040;-73
2024/03/22 10:57:31;;;;;;;14.95;8.65;;;;;;;;;;5045934;28;20029;-73
2024/03/22 10:59:56;;;;;;;10.70;6.95;;;;;;;;;;5044955;28;20168;-74
2024/03/22 11:02:23;;;;;;;13.75;8.50;;;;;;;;;;5030077;28;20127;-73
2024/03/22 11:04:56;;;;;;;16.60;7.68;;;;;;;;;;5044414;28;20040;-73
2024/03/22 11:07:21;;;;;;;12.05;7.82;;;;;;;;;;5045533;28;20041;-73
2024/03/22 11:09:51;;;;;;;12.68;6.88;;;;;;;;;;5045691;28;20029;-71
2024/03/22 11:12:18;;;;;;;11.45;8.15;;;;;;;;;;5047342;28;20037;-71
2024/03/22 11:14:43;;;;;;;10.65;6.45;;;;;;;;;;5044050;28;20025;-71
2024/03/22 11:17:09;;;;;;;16.90;8.45;;;;;;;;;;5044179;28;20491;-72
2024/03/22 11:19:34;;;;;;;14.50;7.70;;;;;;;;;;5045184;28;20028;-71
2024/03/22 11:21:59;;;;;;;11.07;6.63;;;;;;;;;;5043856;28;20040;-71
2024/03/22 11:24:24;;;;;;;12.15;7.53;;;;;;;;;;5049716;28;20049;-71
2024/03/22 11:26:49;;;;;;;11.45;7.97;;;;;;;;;;5051639;28;20021;-71
2024/03/22 11:29:15;;;;;;;11.88;7.10;;;;;;;;;;5048367;28;20029;-72
2024/03/22 11:31:40;;;;;;;11.55;6.30;;;;;;;;;;5025599;28;20029;-73
2024/03/22 11:34:05;;;;;;;10.85;7.32;;;;;;;;;;5048287;28;20028;-73
2024/03/22 11:36:30;;;;;;;10.70;7.28;;;;;;;;;;5041511;28;20037;-73
2024/03/22 11:38:56;;;;;;;9.68;6.18;;;;;;;;;;5042379;28;20044;-73
2024/03/22 11:41:25;;;;;;;9.32;6.10;;;;;;;;;;5045069;28;20033;-74
2024/03/22 11:43:50;;;;;;;12.32;6.07;;;;;;;;;;5045076;28;20025;-73
2024/03/22 11:46:16;;;;;;;12.52;6.55;;;;;;;;;;5045026;28;20033;-73
2024/03/22 11:48:41;;;;;;;11.38;6.18;;;;;;;;;;5041758;28;20044;-73
2024/03/22 11:51:07;;;;;;;9.43;6.35;;;;;;;;;;5041098;28;20025;-73
2024/03/22 11:53:32;;;;;;;11.07;6.32;;;;;;;;;;5047548;28;20112;-73
2024/03/22 11:55:57;;;;;;;10.10;5.82;;;;;;;;;;5041774;28;20060;-73
2024/03/22 11:58:25;;;;;;;10.70;6.13;;;;;;;;;;5043677;28;20021;-73
2024/03/22 12:00:50;;;;;;;9.30;5.22;;;;;;;;;;5046077;28;20501;-75
2024/03/22 12:03:15;;;;;;;10.15;6.53;;;;;;;;;;5045541;28;20091;-72
2024/03/22 12:05:40;;;;;;;10.25;6.10;;;;;;;;;;5051191;28;20040;-72
2024/03/22 12:08:06;;;;;;;9.73;5.83;;;;;;;;;;5045832;28;20038;-72
2024/03/22 12:10:31;;;;;;;8.90;5.70;;;;;;;;;;5043437;28;20337;-71
2024/03/22 12:12:57;;;;;;;9.77;5.95;;;;;;;;;;5044445;28;20053;-72
2024/03/22 12:15:22;;;;;;;10.25;6.20;;;;;;;;;;5042598;28;20064;-71
2024/03/22 12:17:47;;;;;;;11.47;5.80;;;;;;;;;;5044176;28;20107;-72
2024/03/22 12:20:14;;;;;;;9.93;5.73;;;;;;;;;;5043236;28;20672;-72
2024/03/22 12:22:39;;;;;;;9.05;5.97;;;;;;;;;;5042291;28;20283;-71
2024/03/22 12:25:05;;;;;;;9.07;5.68;;;;;;;;;;5049790;28;20037;-72
2024/03/22 12:27:31;;;;;;;11.05;5.78;;;;;;;;;;5047782;28;20070;-72
2024/03/22 12:29:56;;;;;;;9.07;5.70;;;;;;;;;;5044201;28;20049;-72
2024/03/22 12:32:21;;;;;;;7.93;5.53;;;;;;;;;;5045181;28;20071;-71
2024/03/22 12:34:46;;;;;;;8.77;5.35;;;;;;;;;;5048999;28;20124;-71
2024/03/22 12:37:11;;;;;;;9.40;5.38;;;;;;;;;;5048301;28;20036;-72
2024/03/22 12:39:37;;;;;;;10.65;5.50;;;;;;;;;;5044270;28;20078;-71
2024/03/22 12:42:02;;;;;;;9.88;5.63;;;;;;;;;;5042672;28;20111;-72
2024/03/22 12:44:27;;;;;;;9.90;5.45;;;;;;;;;;5045276;28;20700;-71
2024/03/22 12:46:54;;;;;;;9.40;5.20;;;;;;;;;;5039002;28;20032;-72
2024/03/22 12:49:19;;;;;;;11.40;5.55;;;;;;;;;;5042296;28;20041;-71
2024/03/22 12:51:44;;;;;;;8.13;5.50;;;;;;;;;;5049151;28;20033;-71
2024/03/22 12:54:12;;;;;;;10.55;5.55;;;;;;;;;;5047580;28;20052;-72
2024/03/22 12:56:39;;;;;;;12.38;5.80;;;;;;;;;;5042103;28;20057;-71
2024/03/22 12:59:04;;;;;;;10.23;5.72;;;;;;;;;;5046666;28;20036;-72
2024/03/22 13:01:29;;;;;;;9.05;5.28;;;;;;;;;;5043814;28;20033;-71
2024/03/22 13:03:54;;;;;;;9.85;6.10;;;;;;;;;;5038903;28;20528;-71
2024/03/22 13:06:20;;;;;;;9.88;5.93;;;;;;;;;;5040162;28;20501;-72
2024/03/22 13:08:45;;;;;;;7.78;5.38;;;;;;;;;;5042894;28;20064;-71
2024/03/22 13:11:10;;;;;;;10.43;6.32;;;;;;;;;;5044450;28;20029;-72
2024/03/22 13:13:36;;;;;;;9.73;6.20;;;;;;;;;;5040026;28;20026;-72
2024/03/22 13:16:02;;;;;;;10.30;6.45;;;;;;;;;;5046297;28;20044;-72
2024/03/22 13:18:28;;;;;;;11.15;7.03;;;;;;;;;;5045788;28;20409;-71
2024/03/22 13:20:53;;;;;;;12.45;8.35;;;;;;;;;;5044816;28;20040;-72
2024/03/22 13:23:18;;;;;;;12.40;8.80;;;;;;;;;;5048371;28;20116;-71
2024/03/22 13:25:43;;;;;;;15.85;8.30;;;;;;;;;;5040351;28;20490;-71
2024/03/22 13:28:09;;;;;;;12.40;7.35;;;;;;;;;;5043374;28;20039;-71
2024/03/22 13:30:35;;;;;;;12.73;6.85;;;;;;;;;;5042958;28;20047;-71
2024/03/22 13:33:00;;;;;;;11.48;7.43;;;;;;;;;;5041840;28;20481;-71
2024/03/22 13:35:26;;;;;;;10.75;7.22;;;;;;;;;;5039448;28;20037;-72
2024/03/22 13:37:51;;;;;;;11.15;6.50;;;;;;;;;;5040097;28;20477;-72
2024/03/22 13:40:16;;;;;;;13.60;8.43;;;;;;;;;;5046903;28;20060;-71
2024/03/22 13:42:41;;;;;;;14.50;8.68;;;;;;;;;;5046924;28;20029;-72
2024/03/22 13:45:07;;;;;;;14.45;9.30;;;;;;;;;;5041694;28;20124;-71
2024/03/22 13:47:32;;;;;;;12.13;6.70;;;;;;;;;;5043215;28;20040;-72
2024/03/22 13:49:57;;;;;;;11.82;7.63;;;;;;;;;;5040015;28;20068;-71
2024/03/22 13:52:23;;;;;;;11.15;7.65;;;;;;;;;;5041467;28;20035;-72
2024/03/22 13:54:52;;;;;;;12.32;7.63;;;;;;;;;;5041767;28;20057;-72
2024/03/22 13:57:18;;;;;;;13.05;8.38;;;;;;;;;;5040944;28;20081;-71
2024/03/22 13:59:44;;;;;;;12.43;7.38;;;;;;;;;;5040729;28;20059;-72
2024/03/22 14:02:09;;;;;;;14.70;10.15;;;;;;;;;;5044547;28;20033;-72
2024/03/22 14:04:34;;;;;;;13.15;9.05;;;;;;;;;;5044277;28;20078;-72
2024/03/22 14:07:04;;;;;;;13.45;9.32;;;;;;;;;;5040319;28;20119;-72
2024/03/22 14:09:29;;;;;;;13.73;8.35;;;;;;;;;;5048135;28;20468;-72
2024/03/22 14:11:55;;;;;;;14.20;8.70;;;;;;;;;;5043125;28;20128;-72
2024/03/22 14:14:20;;;;;;;14.07;9.45;;;;;;;;;;5042507;28;20021;-72
2024/03/22 14:16:45;;;;;;;13.85;9.52;;;;;;;;;;5039339;28;20033;-72
2024/03/22 14:19:11;;;;;;;14.65;8.65;;;;;;;;;;5044392;28;20045;-72
2024/03/22 14:21:38;;;;;;;17.40;11.02;;;;;;;;;;5039277;28;20049;-71